sensor_id;sensor_type;location;lat;lon;timestamp;P1;durP1;ratioP1;P2;durP2;ratioP2
13999;SDS011;7075;53.574;10.054;2024-01-30T00:02:08;8.43;;;6.07;;
13999;SDS011;7075;53.574;10.054;2024-01-30T00:04:34;5.77;;;5.10;;
13999;SDS011;7075;53.574;10.054;2024-01-30T00:07:00;7.73;;;5.80;;
13999;SDS011;7075;53.574;10.054;2024-01-30T00:09:26;15.53;;;6.03;;
13999;SDS011;7075;53.574;10.054;2024-01-30T00:11:52;7.30;;;5.10;;
13999;SDS011;7075;53.574;10.054;2024-01-30T00:14:18;7.20;;;4.83;;
13999;SDS011;7075;53.574;10.054;2024-01-30T00:16:44;7.83;;;4.80;;
13999;SDS011;7075;53.574;10.054;2024-01-30T00:19:10;5.97;;;5.00;;
13999;SDS011;7075;53.574;10.054;2024-01-30T00:21:37;7.83;;;5.63;;
13999;SDS011;7075;53.574;10.054;2024-01-30T00:24:03;7.43;;;5.33;;
13999;SDS011;7075;53.574;10.054;2024-01-30T00:26:29;8.67;;;5.70;;
13999;SDS011;7075;53.574;10.054;2024-01-30T00:28:55;9.20;;;5.60;;
13999;SDS011;7075;53.574;10.054;2024-01-30T00:31:21;5.73;;;4.77;;
13999;SDS011;7075;53.574;10.054;2024-01-30T00:33:47;7.90;;;5.00;;
13999;SDS011;7075;53.574;10.054;2024-01-30T00:36:13;7.07;;;5.23;;
13999;SDS011;7075;53.574;10.054;2024-01-30T00:38:39;10.97;;;5.40;;
13999;SDS011;7075;53.574;10.054;2024-01-30T00:41:05;12.00;;;5.60;;
13999;SDS011;7075;53.574;10.054;2024-01-30T00:43:32;7.47;;;5.17;;
13999;SDS011;7075;53.574;10.054;2024-01-30T00:45:58;9.80;;;5.83;;
13999;SDS011;7075;53.574;10.054;2024-01-30T00:48:24;12.47;;;6.57;;
13999;SDS011;7075;53.574;10.054;2024-01-30T00:50:50;6.37;;;4.80;;
13999;SDS011;7075;53.574;10.054;2024-01-30T00:53:16;7.07;;;4.93;;
13999;SDS011;7075;53.574;10.054;2024-01-30T00:55:42;8.53;;;4.90;;
13999;SDS011;7075;53.574;10.054;2024-01-30T00:58:08;7.13;;;4.83;;
13999;SDS011;7075;53.574;10.054;2024-01-30T01:00:34;7.00;;;5.00;;
13999;SDS011;7075;53.574;10.054;2024-01-30T01:03:00;6.87;;;4.83;;
13999;SDS011;7075;53.574;10.054;2024-01-30T01:05:26;7.53;;;5.20;;
13999;SDS011;7075;53.574;10.054;2024-01-30T01:07:52;6.33;;;4.97;;
13999;SDS011;7075;53.574;10.054;2024-01-30T01:10:18;6.83;;;4.50;;
13999;SDS011;7075;53.574;10.054;2024-01-30T01:12:44;6.33;;;4.80;;
13999;SDS011;7075;53.574;10.054;2024-01-30T01:15:10;8.47;;;4.80;;
13999;SDS011;7075;53.574;10.054;2024-01-30T01:17:36;6.33;;;4.20;;
13999;SDS011;7075;53.574;10.054;2024-01-30T01:20:03;6.17;;;4.77;;
13999;SDS011;7075;53.574;10.054;2024-01-30T01:22:30;6.40;;;4.37;;
13999;SDS011;7075;53.574;10.054;2024-01-30T01:24:56;7.53;;;5.60;;
13999;SDS011;7075;53.574;10.054;2024-01-30T01:27:22;9.20;;;5.00;;
13999;SDS011;7075;53.574;10.054;2024-01-30T01:29:48;9.33;;;5.60;;
13999;SDS011;7075;53.574;10.054;2024-01-30T01:32:14;6.30;;;4.60;;
13999;SDS011;7075;53.574;10.054;2024-01-30T01:34:41;5.80;;;4.60;;
13999;SDS011;7075;53.574;10.054;2024-01-30T01:37:07;4.83;;;4.20;;
13999;SDS011;7075;53.574;10.054;2024-01-30T01:39:33;8.90;;;4.80;;
13999;SDS011;7075;53.574;10.054;2024-01-30T01:41:59;6.73;;;4.90;;
13999;SDS011;7075;53.574;10.054;2024-01-30T01:44:25;5.83;;;4.60;;
13999;SDS011;7075;53.574;10.054;2024-01-30T01:46:51;8.03;;;5.27;;
13999;SDS011;7075;53.574;10.054;2024-01-30T01:49:18;7.30;;;5.23;;
13999;SDS011;7075;53.574;10.054;2024-01-30T01:51:44;7.07;;;5.50;;
13999;SDS011;7075;53.574;10.054;2024-01-30T01:54:11;7.97;;;5.10;;
13999;SDS011;7075;53.574;10.054;2024-01-30T01:56:37;7.57;;;4.73;;
13999;SDS011;7075;53.574;10.054;2024-01-30T01:59:07;7.00;;;5.53;;
13999;SDS011;7075;53.574;10.054;2024-01-30T02:01:33;10.57;;;4.73;;
13999;SDS011;7075;53.574;10.054;2024-01-30T02:03:59;8.00;;;5.30;;
13999;SDS011;7075;53.574;10.054;2024-01-30T02:06:26;7.80;;;5.47;;
13999;SDS011;7075;53.574;10.054;2024-01-30T02:08:52;7.17;;;4.80;;
13999;SDS011;7075;53.574;10.054;2024-01-30T02:11:18;8.10;;;5.37;;
13999;SDS011;7075;53.574;10.054;2024-01-30T02:13:44;6.07;;;4.87;;
13999;SDS011;7075;53.574;10.054;2024-01-30T02:16:10;7.67;;;5.20;;
13999;SDS011;7075;53.574;10.054;2024-01-30T02:18:36;7.03;;;5.00;;
13999;SDS011;7075;53.574;10.054;2024-01-30T02:21:07;6.60;;;5.20;;
13999;SDS011;7075;53.574;10.054;2024-01-30T02:23:33;6.27;;;4.93;;
13999;SDS011;7075;53.574;10.054;2024-01-30T02:25:59;7.20;;;4.67;;
13999;SDS011;7075;53.574;10.054;2024-01-30T02:28:25;7.90;;;5.57;;
13999;SDS011;7075;53.574;10.054;2024-01-30T02:30:53;9.40;;;5.13;;
13999;SDS011;7075;53.574;10.054;2024-01-30T02:33:19;11.53;;;5.53;;
13999;SDS011;7075;53.574;10.054;2024-01-30T02:35:47;8.00;;;5.37;;
13999;SDS011;7075;53.574;10.054;2024-01-30T02:38:13;6.53;;;4.83;;
13999;SDS011;7075;53.574;10.054;2024-01-30T02:40:39;6.23;;;5.07;;
13999;SDS011;7075;53.574;10.054;2024-01-30T02:43:05;7.60;;;5.03;;
13999;SDS011;7075;53.574;10.054;2024-01-30T02:45:31;10.47;;;5.60;;
13999;SDS011;7075;53.574;10.054;2024-01-30T02:47:57;6.00;;;4.93;;
13999;SDS011;7075;53.574;10.054;2024-01-30T02:50:23;10.23;;;4.70;;
13999;SDS011;7075;53.574;10.054;2024-01-30T02:52:49;7.20;;;5.03;;
13999;SDS011;7075;53.574;10.054;2024-01-30T02:55:15;8.40;;;4.97;;
13999;SDS011;7075;53.574;10.054;2024-01-30T02:57:44;6.90;;;4.50;;
13999;SDS011;7075;53.574;10.054;2024-01-30T03:00:11;9.77;;;5.87;;
13999;SDS011;7075;53.574;10.054;2024-01-30T03:02:37;10.10;;;5.17;;
13999;SDS011;7075;53.574;10.054;2024-01-30T03:05:03;8.10;;;5.73;;
13999;SDS011;7075;53.574;10.054;2024-01-30T03:07:29;7.87;;;5.50;;
13999;SDS011;7075;53.574;10.054;2024-01-30T03:09:55;9.87;;;5.53;;
13999;SDS011;7075;53.574;10.054;2024-01-30T03:12:21;8.70;;;6.40;;
13999;SDS011;7075;53.574;10.054;2024-01-30T03:14:48;10.60;;;5.57;;
13999;SDS011;7075;53.574;10.054;2024-01-30T03:17:14;7.60;;;5.50;;
13999;SDS011;7075;53.574;10.054;2024-01-30T03:19:40;7.37;;;5.60;;
13999;SDS011;7075;53.574;10.054;2024-01-30T03:22:06;7.77;;;5.40;;
13999;SDS011;7075;53.574;10.054;2024-01-30T03:24:32;7.47;;;5.33;;
13999;SDS011;7075;53.574;10.054;2024-01-30T03:26:58;8.17;;;5.53;;
13999;SDS011;7075;53.574;10.054;2024-01-30T03:29:24;8.63;;;5.70;;
13999;SDS011;7075;53.574;10.054;2024-01-30T03:31:50;7.20;;;5.00;;
13999;SDS011;7075;53.574;10.054;2024-01-30T03:34:16;8.97;;;5.70;;
13999;SDS011;7075;53.574;10.054;2024-01-30T03:36:42;8.30;;;5.60;;
13999;SDS011;7075;53.574;10.054;2024-01-30T03:39:08;6.93;;;5.07;;
13999;SDS011;7075;53.574;10.054;2024-01-30T03:41:34;7.23;;;5.13;;
13999;SDS011;7075;53.574;10.054;2024-01-30T03:44:01;8.37;;;5.53;;
13999;SDS011;7075;53.574;10.054;2024-01-30T03:46:27;7.03;;;5.57;;
13999;SDS011;7075;53.574;10.054;2024-01-30T03:48:53;6.27;;;5.50;;
13999;SDS011;7075;53.574;10.054;2024-01-30T03:51:19;9.60;;;6.00;;
13999;SDS011;7075;53.574;10.054;2024-01-30T03:53:45;7.13;;;5.43;;
13999;SDS011;7075;53.574;10.054;2024-01-30T03:56:11;8.43;;;5.60;;
13999;SDS011;7075;53.574;10.054;2024-01-30T03:58:38;7.87;;;5.53;;
13999;SDS011;7075;53.574;10.054;2024-01-30T04:01:04;10.97;;;5.93;;
13999;SDS011;7075;53.574;10.054;2024-01-30T04:03:30;6.07;;;5.13;;
13999;SDS011;7075;53.574;10.054;2024-01-30T04:05:56;7.77;;;5.67;;
13999;SDS011;7075;53.574;10.054;2024-01-30T04:08:22;7.50;;;5.60;;
13999;SDS011;7075;53.574;10.054;2024-01-30T04:10:48;7.77;;;6.10;;
13999;SDS011;7075;53.574;10.054;2024-01-30T04:13:14;10.63;;;6.80;;
13999;SDS011;7075;53.574;10.054;2024-01-30T04:15:40;10.07;;;5.40;;
13999;SDS011;7075;53.574;10.054;2024-01-30T04:18:06;7.97;;;6.03;;
13999;SDS011;7075;53.574;10.054;2024-01-30T04:20:32;8.97;;;5.93;;
13999;SDS011;7075;53.574;10.054;2024-01-30T04:22:58;9.37;;;5.97;;
13999;SDS011;7075;53.574;10.054;2024-01-30T04:25:24;8.23;;;5.93;;
13999;SDS011;7075;53.574;10.054;2024-01-30T04:27:50;9.37;;;6.00;;
13999;SDS011;7075;53.574;10.054;2024-01-30T04:30:16;6.23;;;5.63;;
13999;SDS011;7075;53.574;10.054;2024-01-30T04:32:43;9.70;;;6.80;;
13999;SDS011;7075;53.574;10.054;2024-01-30T04:35:09;11.80;;;6.43;;
13999;SDS011;7075;53.574;10.054;2024-01-30T04:37:35;8.20;;;6.53;;
13999;SDS011;7075;53.574;10.054;2024-01-30T04:40:01;8.87;;;6.33;;
13999;SDS011;7075;53.574;10.054;2024-01-30T04:42:28;9.40;;;6.60;;
13999;SDS011;7075;53.574;10.054;2024-01-30T04:44:54;8.57;;;6.57;;
13999;SDS011;7075;53.574;10.054;2024-01-30T04:47:20;8.23;;;6.80;;
13999;SDS011;7075;53.574;10.054;2024-01-30T04:49:46;8.00;;;6.30;;
13999;SDS011;7075;53.574;10.054;2024-01-30T04:52:12;10.70;;;6.67;;
13999;SDS011;7075;53.574;10.054;2024-01-30T04:54:38;7.30;;;5.93;;
13999;SDS011;7075;53.574;10.054;2024-01-30T04:57:04;10.37;;;6.33;;
13999;SDS011;7075;53.574;10.054;2024-01-30T04:59:34;7.53;;;5.77;;
13999;SDS011;7075;53.574;10.054;2024-01-30T05:02:00;8.83;;;6.67;;
13999;SDS011;7075;53.574;10.054;2024-01-30T05:04:26;9.10;;;6.50;;
13999;SDS011;7075;53.574;10.054;2024-01-30T05:06:52;8.83;;;5.63;;
13999;SDS011;7075;53.574;10.054;2024-01-30T05:09:18;10.23;;;7.00;;
13999;SDS011;7075;53.574;10.054;2024-01-30T05:11:44;9.43;;;6.07;;
13999;SDS011;7075;53.574;10.054;2024-01-30T05:14:10;8.90;;;6.87;;
13999;SDS011;7075;53.574;10.054;2024-01-30T05:16:37;8.93;;;6.90;;
13999;SDS011;7075;53.574;10.054;2024-01-30T05:19:03;8.67;;;5.67;;
13999;SDS011;7075;53.574;10.054;2024-01-30T05:21:29;9.60;;;6.57;;
13999;SDS011;7075;53.574;10.054;2024-01-30T05:23:55;8.47;;;6.70;;
13999;SDS011;7075;53.574;10.054;2024-01-30T05:26:20;9.63;;;6.63;;
13999;SDS011;7075;53.574;10.054;2024-01-30T05:28:47;10.20;;;7.20;;
13999;SDS011;7075;53.574;10.054;2024-01-30T05:31:14;8.30;;;6.33;;
13999;SDS011;7075;53.574;10.054;2024-01-30T05:33:40;8.87;;;6.73;;
13999;SDS011;7075;53.574;10.054;2024-01-30T05:36:06;10.33;;;6.93;;
13999;SDS011;7075;53.574;10.054;2024-01-30T05:38:32;9.80;;;6.90;;
13999;SDS011;7075;53.574;10.054;2024-01-30T05:40:58;8.90;;;6.00;;
13999;SDS011;7075;53.574;10.054;2024-01-30T05:43:25;8.97;;;6.70;;
13999;SDS011;7075;53.574;10.054;2024-01-30T05:45:51;9.23;;;7.33;;
13999;SDS011;7075;53.574;10.054;2024-01-30T05:48:17;9.47;;;7.20;;
13999;SDS011;7075;53.574;10.054;2024-01-30T05:50:43;11.17;;;6.97;;
13999;SDS011;7075;53.574;10.054;2024-01-30T05:53:10;8.20;;;6.50;;
13999;SDS011;7075;53.574;10.054;2024-01-30T05:55:36;8.60;;;6.80;;
13999;SDS011;7075;53.574;10.054;2024-01-30T05:58:02;16.70;;;7.33;;
13999;SDS011;7075;53.574;10.054;2024-01-30T06:00:29;11.53;;;7.67;;
13999;SDS011;7075;53.574;10.054;2024-01-30T06:02:55;10.23;;;7.57;;
13999;SDS011;7075;53.574;10.054;2024-01-30T06:05:21;11.80;;;7.47;;
13999;SDS011;7075;53.574;10.054;2024-01-30T06:07:47;12.77;;;7.00;;
13999;SDS011;7075;53.574;10.054;2024-01-30T06:10:13;9.97;;;7.50;;
13999;SDS011;7075;53.574;10.054;2024-01-30T06:12:39;11.80;;;7.93;;
13999;SDS011;7075;53.574;10.054;2024-01-30T06:15:05;9.93;;;7.33;;
13999;SDS011;7075;53.574;10.054;2024-01-30T06:17:31;10.43;;;7.23;;
13999;SDS011;7075;53.574;10.054;2024-01-30T06:19:57;12.00;;;7.40;;
13999;SDS011;7075;53.574;10.054;2024-01-30T06:22:24;11.73;;;7.23;;
13999;SDS011;7075;53.574;10.054;2024-01-30T06:24:50;10.83;;;7.40;;
13999;SDS011;7075;53.574;10.054;2024-01-30T06:27:16;12.57;;;7.50;;
13999;SDS011;7075;53.574;10.054;2024-01-30T06:29:42;12.07;;;8.30;;
13999;SDS011;7075;53.574;10.054;2024-01-30T06:32:09;9.63;;;7.73;;
13999;SDS011;7075;53.574;10.054;2024-01-30T06:34:35;13.43;;;7.47;;
13999;SDS011;7075;53.574;10.054;2024-01-30T06:37:01;12.43;;;7.93;;
13999;SDS011;7075;53.574;10.054;2024-01-30T06:39:27;13.63;;;7.77;;
13999;SDS011;7075;53.574;10.054;2024-01-30T06:41:53;10.00;;;7.43;;
13999;SDS011;7075;53.574;10.054;2024-01-30T06:44:19;10.67;;;7.57;;
13999;SDS011;7075;53.574;10.054;2024-01-30T06:46:45;10.73;;;7.67;;
13999;SDS011;7075;53.574;10.054;2024-01-30T06:49:11;10.70;;;7.50;;
13999;SDS011;7075;53.574;10.054;2024-01-30T06:51:37;10.40;;;7.80;;
13999;SDS011;7075;53.574;10.054;2024-01-30T06:54:03;10.10;;;7.27;;
13999;SDS011;7075;53.574;10.054;2024-01-30T06:56:29;9.90;;;7.60;;
13999;SDS011;7075;53.574;10.054;2024-01-30T06:58:55;10.20;;;7.17;;
13999;SDS011;7075;53.574;10.054;2024-01-30T07:01:27;9.83;;;7.33;;
13999;SDS011;7075;53.574;10.054;2024-01-30T07:03:54;15.53;;;8.03;;
13999;SDS011;7075;53.574;10.054;2024-01-30T07:06:20;11.70;;;7.23;;
13999;SDS011;7075;53.574;10.054;2024-01-30T07:08:47;11.13;;;6.73;;
13999;SDS011;7075;53.574;10.054;2024-01-30T07:11:18;9.80;;;7.60;;
13999;SDS011;7075;53.574;10.054;2024-01-30T07:13:44;11.20;;;7.93;;
13999;SDS011;7075;53.574;10.054;2024-01-30T07:16:12;10.63;;;7.60;;
13999;SDS011;7075;53.574;10.054;2024-01-30T07:18:38;9.20;;;7.27;;
13999;SDS011;7075;53.574;10.054;2024-01-30T07:21:04;16.13;;;7.43;;
13999;SDS011;7075;53.574;10.054;2024-01-30T07:23:30;12.37;;;7.27;;
13999;SDS011;7075;53.574;10.054;2024-01-30T07:25:55;11.20;;;8.03;;
13999;SDS011;7075;53.574;10.054;2024-01-30T07:28:21;11.50;;;8.10;;
13999;SDS011;7075;53.574;10.054;2024-01-30T07:30:47;10.17;;;8.00;;
13999;SDS011;7075;53.574;10.054;2024-01-30T07:33:14;13.33;;;7.83;;
13999;SDS011;7075;53.574;10.054;2024-01-30T07:35:40;11.17;;;7.73;;
13999;SDS011;7075;53.574;10.054;2024-01-30T07:38:06;11.80;;;8.40;;
13999;SDS011;7075;53.574;10.054;2024-01-30T07:40:32;12.90;;;7.87;;
13999;SDS011;7075;53.574;10.054;2024-01-30T07:43:01;12.67;;;8.20;;
13999;SDS011;7075;53.574;10.054;2024-01-30T07:45:28;17.27;;;9.73;;
13999;SDS011;7075;53.574;10.054;2024-01-30T07:47:57;11.93;;;8.40;;
13999;SDS011;7075;53.574;10.054;2024-01-30T07:50:24;13.37;;;9.33;;
13999;SDS011;7075;53.574;10.054;2024-01-30T07:52:50;13.10;;;8.50;;
13999;SDS011;7075;53.574;10.054;2024-01-30T07:55:19;11.63;;;8.23;;
13999;SDS011;7075;53.574;10.054;2024-01-30T07:57:46;12.13;;;8.07;;
13999;SDS011;7075;53.574;10.054;2024-01-30T08:00:13;12.60;;;8.83;;
13999;SDS011;7075;53.574;10.054;2024-01-30T08:02:39;16.90;;;8.77;;
13999;SDS011;7075;53.574;10.054;2024-01-30T08:05:05;11.03;;;8.07;;
13999;SDS011;7075;53.574;10.054;2024-01-30T08:07:31;12.20;;;8.17;;
13999;SDS011;7075;53.574;10.054;2024-01-30T08:09:57;11.70;;;7.83;;
13999;SDS011;7075;53.574;10.054;2024-01-30T08:12:23;11.47;;;8.17;;
13999;SDS011;7075;53.574;10.054;2024-01-30T08:14:49;11.73;;;8.40;;
13999;SDS011;7075;53.574;10.054;2024-01-30T08:17:14;13.40;;;8.97;;
13999;SDS011;7075;53.574;10.054;2024-01-30T08:19:40;11.03;;;8.70;;
13999;SDS011;7075;53.574;10.054;2024-01-30T08:22:06;13.27;;;8.20;;
13999;SDS011;7075;53.574;10.054;2024-01-30T08:24:32;10.93;;;8.73;;
13999;SDS011;7075;53.574;10.054;2024-01-30T08:29:28;10.07;;;7.80;;
13999;SDS011;7075;53.574;10.054;2024-01-30T08:31:54;13.93;;;8.93;;
13999;SDS011;7075;53.574;10.054;2024-01-30T08:34:20;13.30;;;8.90;;
13999;SDS011;7075;53.574;10.054;2024-01-30T08:36:46;11.53;;;8.77;;
13999;SDS011;7075;53.574;10.054;2024-01-30T08:39:13;15.67;;;9.97;;
13999;SDS011;7075;53.574;10.054;2024-01-30T08:41:39;11.37;;;8.80;;
13999;SDS011;7075;53.574;10.054;2024-01-30T08:44:05;11.10;;;8.43;;
13999;SDS011;7075;53.574;10.054;2024-01-30T08:46:32;11.50;;;8.97;;
13999;SDS011;7075;53.574;10.054;2024-01-30T08:48:59;12.83;;;8.83;;
13999;SDS011;7075;53.574;10.054;2024-01-30T08:51:24;11.03;;;8.63;;
13999;SDS011;7075;53.574;10.054;2024-01-30T08:53:50;13.10;;;8.10;;
13999;SDS011;7075;53.574;10.054;2024-01-30T08:56:17;13.80;;;8.83;;
13999;SDS011;7075;53.574;10.054;2024-01-30T08:58:43;17.03;;;9.50;;
13999;SDS011;7075;53.574;10.054;2024-01-30T09:01:09;11.00;;;8.73;;
13999;SDS011;7075;53.574;10.054;2024-01-30T09:03:35;11.70;;;9.13;;
13999;SDS011;7075;53.574;10.054;2024-01-30T09:06:07;11.43;;;9.10;;
13999;SDS011;7075;53.574;10.054;2024-01-30T09:08:34;12.03;;;10.20;;
13999;SDS011;7075;53.574;10.054;2024-01-30T09:11:00;11.60;;;8.77;;
13999;SDS011;7075;53.574;10.054;2024-01-30T09:13:26;14.77;;;8.67;;
13999;SDS011;7075;53.574;10.054;2024-01-30T09:15:52;13.33;;;8.97;;
13999;SDS011;7075;53.574;10.054;2024-01-30T09:18:18;13.17;;;9.83;;
13999;SDS011;7075;53.574;10.054;2024-01-30T09:20:44;12.57;;;9.33;;
13999;SDS011;7075;53.574;10.054;2024-01-30T09:23:13;17.27;;;9.60;;
13999;SDS011;7075;53.574;10.054;2024-01-30T09:25:39;16.43;;;9.60;;
13999;SDS011;7075;53.574;10.054;2024-01-30T09:28:05;13.10;;;9.33;;
13999;SDS011;7075;53.574;10.054;2024-01-30T09:30:31;15.90;;;10.40;;
13999;SDS011;7075;53.574;10.054;2024-01-30T09:32:57;17.73;;;9.70;;
13999;SDS011;7075;53.574;10.054;2024-01-30T09:35:23;12.37;;;9.20;;
13999;SDS011;7075;53.574;10.054;2024-01-30T09:37:49;17.07;;;10.37;;
13999;SDS011;7075;53.574;10.054;2024-01-30T09:40:17;12.93;;;9.87;;
13999;SDS011;7075;53.574;10.054;2024-01-30T09:42:44;14.87;;;10.23;;
13999;SDS011;7075;53.574;10.054;2024-01-30T09:45:13;13.60;;;10.07;;
13999;SDS011;7075;53.574;10.054;2024-01-30T09:47:40;12.37;;;9.60;;
13999;SDS011;7075;53.574;10.054;2024-01-30T09:50:09;13.17;;;9.43;;
13999;SDS011;7075;53.574;10.054;2024-01-30T09:52:36;10.07;;;8.50;;
13999;SDS011;7075;53.574;10.054;2024-01-30T09:55:02;18.40;;;10.63;;
13999;SDS011;7075;53.574;10.054;2024-01-30T09:57:29;12.43;;;9.60;;
13999;SDS011;7075;53.574;10.054;2024-01-30T09:59:55;12.63;;;9.27;;
13999;SDS011;7075;53.574;10.054;2024-01-30T10:02:21;12.23;;;9.73;;
13999;SDS011;7075;53.574;10.054;2024-01-30T10:04:51;16.03;;;10.67;;
13999;SDS011;7075;53.574;10.054;2024-01-30T10:07:17;17.77;;;9.53;;
13999;SDS011;7075;53.574;10.054;2024-01-30T10:09:44;11.90;;;8.83;;
13999;SDS011;7075;53.574;10.054;2024-01-30T10:12:13;13.20;;;9.33;;
13999;SDS011;7075;53.574;10.054;2024-01-30T10:14:39;14.63;;;9.53;;
13999;SDS011;7075;53.574;10.054;2024-01-30T10:17:06;12.73;;;9.67;;
13999;SDS011;7075;53.574;10.054;2024-01-30T10:19:32;13.03;;;9.27;;
13999;SDS011;7075;53.574;10.054;2024-01-30T10:21:59;12.70;;;9.63;;
13999;SDS011;7075;53.574;10.054;2024-01-30T10:24:26;13.60;;;8.57;;
13999;SDS011;7075;53.574;10.054;2024-01-30T10:26:53;9.77;;;8.50;;
13999;SDS011;7075;53.574;10.054;2024-01-30T10:29:19;12.50;;;9.27;;
13999;SDS011;7075;53.574;10.054;2024-01-30T10:31:45;14.27;;;10.13;;
13999;SDS011;7075;53.574;10.054;2024-01-30T10:34:12;17.27;;;9.97;;
13999;SDS011;7075;53.574;10.054;2024-01-30T10:36:41;11.03;;;8.70;;
13999;SDS011;7075;53.574;10.054;2024-01-30T10:39:08;12.27;;;8.90;;
13999;SDS011;7075;53.574;10.054;2024-01-30T10:41:38;9.40;;;8.20;;
13999;SDS011;7075;53.574;10.054;2024-01-30T10:44:08;13.10;;;9.23;;
13999;SDS011;7075;53.574;10.054;2024-01-30T10:46:35;10.23;;;8.03;;
13999;SDS011;7075;53.574;10.054;2024-01-30T10:49:02;12.67;;;8.97;;
13999;SDS011;7075;53.574;10.054;2024-01-30T10:51:29;11.90;;;9.57;;
13999;SDS011;7075;53.574;10.054;2024-01-30T10:53:56;12.13;;;8.77;;
13999;SDS011;7075;53.574;10.054;2024-01-30T10:56:23;9.53;;;7.70;;
13999;SDS011;7075;53.574;10.054;2024-01-30T10:58:49;11.43;;;7.73;;
13999;SDS011;7075;53.574;10.054;2024-01-30T11:01:17;10.90;;;8.23;;
13999;SDS011;7075;53.574;10.054;2024-01-30T11:03:43;11.10;;;7.80;;
13999;SDS011;7075;53.574;10.054;2024-01-30T11:06:12;18.23;;;10.50;;
13999;SDS011;7075;53.574;10.054;2024-01-30T11:08:43;10.57;;;8.40;;
13999;SDS011;7075;53.574;10.054;2024-01-30T11:11:09;10.57;;;9.10;;
13999;SDS011;7075;53.574;10.054;2024-01-30T11:13:35;10.73;;;8.73;;
13999;SDS011;7075;53.574;10.054;2024-01-30T11:16:02;12.17;;;9.57;;
13999;SDS011;7075;53.574;10.054;2024-01-30T11:18:31;11.33;;;8.80;;
13999;SDS011;7075;53.574;10.054;2024-01-30T11:20:58;13.07;;;8.53;;
13999;SDS011;7075;53.574;10.054;2024-01-30T11:23:27;13.73;;;8.67;;
13999;SDS011;7075;53.574;10.054;2024-01-30T11:25:53;14.50;;;8.97;;
13999;SDS011;7075;53.574;10.054;2024-01-30T11:28:20;12.67;;;9.33;;
13999;SDS011;7075;53.574;10.054;2024-01-30T11:30:46;11.13;;;8.37;;
13999;SDS011;7075;53.574;10.054;2024-01-30T11:33:15;10.83;;;8.63;;
13999;SDS011;7075;53.574;10.054;2024-01-30T11:35:52;9.47;;;8.47;;
13999;SDS011;7075;53.574;10.054;2024-01-30T11:38:18;12.63;;;8.93;;
13999;SDS011;7075;53.574;10.054;2024-01-30T11:40:44;10.20;;;7.53;;
13999;SDS011;7075;53.574;10.054;2024-01-30T11:43:10;14.20;;;9.60;;
13999;SDS011;7075;53.574;10.054;2024-01-30T11:45:37;14.73;;;9.00;;
13999;SDS011;7075;53.574;10.054;2024-01-30T11:48:04;14.37;;;8.80;;
13999;SDS011;7075;53.574;10.054;2024-01-30T11:50:31;11.10;;;7.87;;
13999;SDS011;7075;53.574;10.054;2024-01-30T11:52:57;11.97;;;8.57;;
13999;SDS011;7075;53.574;10.054;2024-01-30T11:55:23;18.90;;;9.23;;
13999;SDS011;7075;53.574;10.054;2024-01-30T11:57:49;14.30;;;9.00;;
13999;SDS011;7075;53.574;10.054;2024-01-30T12:00:16;13.63;;;8.60;;
13999;SDS011;7075;53.574;10.054;2024-01-30T12:02:43;12.40;;;8.40;;
13999;SDS011;7075;53.574;10.054;2024-01-30T12:05:09;13.30;;;8.57;;
13999;SDS011;7075;53.574;10.054;2024-01-30T12:07:36;12.20;;;8.03;;
13999;SDS011;7075;53.574;10.054;2024-01-30T12:10:02;9.17;;;7.27;;
13999;SDS011;7075;53.574;10.054;2024-01-30T12:12:28;11.67;;;7.90;;
13999;SDS011;7075;53.574;10.054;2024-01-30T12:14:55;12.67;;;8.50;;
13999;SDS011;7075;53.574;10.054;2024-01-30T12:19:50;14.00;;;8.57;;
13999;SDS011;7075;53.574;10.054;2024-01-30T12:22:16;13.40;;;8.90;;
13999;SDS011;7075;53.574;10.054;2024-01-30T12:24:42;15.87;;;8.23;;
13999;SDS011;7075;53.574;10.054;2024-01-30T12:27:08;12.63;;;9.10;;
13999;SDS011;7075;53.574;10.054;2024-01-30T12:29:46;14.03;;;8.97;;
13999;SDS011;7075;53.574;10.054;2024-01-30T12:32:16;11.53;;;8.50;;
13999;SDS011;7075;53.574;10.054;2024-01-30T12:34:42;12.63;;;8.33;;
13999;SDS011;7075;53.574;10.054;2024-01-30T12:37:08;12.47;;;8.73;;
13999;SDS011;7075;53.574;10.054;2024-01-30T12:39:34;15.43;;;9.63;;
13999;SDS011;7075;53.574;10.054;2024-01-30T12:42:00;13.63;;;8.23;;
13999;SDS011;7075;53.574;10.054;2024-01-30T12:44:28;14.90;;;9.20;;
13999;SDS011;7075;53.574;10.054;2024-01-30T12:46:54;14.60;;;9.37;;
13999;SDS011;7075;53.574;10.054;2024-01-30T12:49:20;13.43;;;9.07;;
13999;SDS011;7075;53.574;10.054;2024-01-30T12:51:46;14.47;;;9.10;;
13999;SDS011;7075;53.574;10.054;2024-01-30T12:54:12;13.23;;;8.80;;
13999;SDS011;7075;53.574;10.054;2024-01-30T12:56:38;15.03;;;9.50;;
13999;SDS011;7075;53.574;10.054;2024-01-30T12:59:04;11.37;;;9.00;;
13999;SDS011;7075;53.574;10.054;2024-01-30T13:01:30;13.53;;;8.63;;
13999;SDS011;7075;53.574;10.054;2024-01-30T13:03:56;14.53;;;8.97;;
13999;SDS011;7075;53.574;10.054;2024-01-30T13:06:24;13.10;;;8.33;;
13999;SDS011;7075;53.574;10.054;2024-01-30T13:08:51;13.90;;;8.00;;
13999;SDS011;7075;53.574;10.054;2024-01-30T13:11:18;11.67;;;7.97;;
13999;SDS011;7075;53.574;10.054;2024-01-30T13:13:44;11.93;;;8.23;;
13999;SDS011;7075;53.574;10.054;2024-01-30T13:16:10;14.47;;;8.60;;
13999;SDS011;7075;53.574;10.054;2024-01-30T13:18:36;14.63;;;7.77;;
13999;SDS011;7075;53.574;10.054;2024-01-30T13:21:03;10.23;;;7.77;;
13999;SDS011;7075;53.574;10.054;2024-01-30T13:23:30;13.40;;;8.23;;
13999;SDS011;7075;53.574;10.054;2024-01-30T13:25:56;11.43;;;7.63;;
13999;SDS011;7075;53.574;10.054;2024-01-30T13:28:24;12.57;;;7.47;;
13999;SDS011;7075;53.574;10.054;2024-01-30T13:30:51;11.77;;;8.40;;
13999;SDS011;7075;53.574;10.054;2024-01-30T13:33:18;10.97;;;7.53;;
13999;SDS011;7075;53.574;10.054;2024-01-30T13:35:44;12.07;;;7.63;;
13999;SDS011;7075;53.574;10.054;2024-01-30T13:38:10;13.20;;;7.93;;
13999;SDS011;7075;53.574;10.054;2024-01-30T13:40:36;14.57;;;7.57;;
13999;SDS011;7075;53.574;10.054;2024-01-30T13:43:02;12.83;;;8.47;;
13999;SDS011;7075;53.574;10.054;2024-01-30T13:45:28;14.43;;;8.37;;
13999;SDS011;7075;53.574;10.054;2024-01-30T13:47:55;11.97;;;7.73;;
13999;SDS011;7075;53.574;10.054;2024-01-30T13:50:21;16.17;;;8.83;;
13999;SDS011;7075;53.574;10.054;2024-01-30T13:52:47;11.77;;;7.77;;
13999;SDS011;7075;53.574;10.054;2024-01-30T13:55:13;9.83;;;7.33;;
13999;SDS011;7075;53.574;10.054;2024-01-30T13:57:39;14.50;;;8.00;;
13999;SDS011;7075;53.574;10.054;2024-01-30T14:00:06;11.70;;;8.00;;
13999;SDS011;7075;53.574;10.054;2024-01-30T14:02:33;14.53;;;7.77;;
13999;SDS011;7075;53.574;10.054;2024-01-30T14:04:59;11.90;;;7.50;;
13999;SDS011;7075;53.574;10.054;2024-01-30T14:07:25;9.33;;;7.30;;
13999;SDS011;7075;53.574;10.054;2024-01-30T14:09:52;10.40;;;7.27;;
13999;SDS011;7075;53.574;10.054;2024-01-30T14:12:18;11.20;;;8.23;;
13999;SDS011;7075;53.574;10.054;2024-01-30T14:14:44;15.33;;;7.83;;
13999;SDS011;7075;53.574;10.054;2024-01-30T14:17:10;15.13;;;8.17;;
13999;SDS011;7075;53.574;10.054;2024-01-30T14:19:36;11.93;;;7.20;;
13999;SDS011;7075;53.574;10.054;2024-01-30T14:22:02;9.93;;;7.33;;
13999;SDS011;7075;53.574;10.054;2024-01-30T14:24:28;9.93;;;7.37;;
13999;SDS011;7075;53.574;10.054;2024-01-30T14:26:54;12.30;;;7.83;;
13999;SDS011;7075;53.574;10.054;2024-01-30T14:29:20;17.17;;;8.50;;
13999;SDS011;7075;53.574;10.054;2024-01-30T14:31:46;18.77;;;8.10;;
13999;SDS011;7075;53.574;10.054;2024-01-30T14:34:12;10.87;;;7.70;;
13999;SDS011;7075;53.574;10.054;2024-01-30T14:36:45;10.13;;;7.80;;
13999;SDS011;7075;53.574;10.054;2024-01-30T14:39:11;10.87;;;7.33;;